Time;durP1;ratioP1;P1;durP2;ratioP2;P2;SDS_P1;SDS_P2;PMS_P1;PMS_P2;Temp;Humidity;BMP_temperature;BMP_pressure;BME280_temperature;BME280_humidity;BME280_pressure;Samples;Min_cycle;Max_cycle;Signal;HPM_P1;HPM_P2
2022/10/08 00:06:24;;;;;;;10.55;2.95;;;;;;;;;;20601326;28;20051;-62
2022/10/08 00:16:28;;;;;;;12.60;3.28;;;;;;;;;;20601004;28;20170;-61
2022/10/08 00:26:31;;;;;;;11.43;3.47;;;;;;;;;;20586651;28;20476;-63
2022/10/08 00:36:36;;;;;;;13.00;3.50;;;;;;;;;;20585562;28;20051;-63
2022/10/08 00:46:43;;;;;;;13.07;3.03;;;;;;;;;;20585579;28;20063;-65
2022/10/08 00:56:48;;;;;;;11.93;3.28;;;;;;;;;;20584804;28;20046;-62
2022/10/08 01:07:10;;;;;;;11.10;3.45;;;;;;;;;;20590364;28;20058;-64
2022/10/08 01:17:12;;;;;;;10.95;2.97;;;;;;;;;;20598688;28;20105;-65
2022/10/08 01:27:23;;;;;;;12.65;3.05;;;;;;;;;;20598228;28;20051;-64
2022/10/08 01:37:25;;;;;;;;;;;;;;;;;;20597853;28;20047;-65
2022/10/08 01:47:30;;;;;;;8.25;2.58;;;;;;;;;;20596283;28;19922;-63
2022/10/08 01:57:41;;;;;;;13.13;3.10;;;;;;;;;;20596209;28;20080;-63
2022/10/08 02:07:54;;;;;;;8.18;2.75;;;;;;;;;;20596219;28;20129;-62
2022/10/08 02:18:10;;;;;;;10.63;2.90;;;;;;;;;;20593390;28;20054;-62
2022/10/08 02:28:32;;;;;;;8.23;2.63;;;;;;;;;;20594564;28;20055;-61
2022/10/08 02:38:52;;;;;;;8.88;2.58;;;;;;;;;;20593544;28;20462;-62
2022/10/08 02:49:16;;;;;;;11.27;2.88;;;;;;;;;;20591399;28;20069;-62
2022/10/08 02:59:25;;;;;;;10.68;2.80;;;;;;;;;;20592295;28;20408;-61
2022/10/08 03:09:38;;;;;;;9.73;2.60;;;;;;;;;;20591008;28;20054;-61
2022/10/08 03:19:42;;;;;;;10.77;2.88;;;;;;;;;;20589323;28;20051;-62
2022/10/08 03:29:44;;;;;;;10.50;2.88;;;;;;;;;;20589390;28;20548;-63
2022/10/08 03:39:47;;;;;;;10.30;2.90;;;;;;;;;;20588003;28;20051;-65
2022/10/08 03:49:49;;;;;;;6.40;2.40;;;;;;;;;;20602328;28;20062;-65
2022/10/08 03:59:52;;;;;;;11.00;2.92;;;;;;;;;;20588150;28;20376;-65
2022/10/08 04:09:54;;;;;;;7.95;2.78;;;;;;;;;;20586557;28;20055;-62
2022/10/08 04:19:56;;;;;;;9.13;2.58;;;;;;;;;;20586112;28;20054;-61
2022/10/08 04:29:59;;;;;;;7.63;3.13;;;;;;;;;;20587043;28;20133;-65
2022/10/08 04:40:02;;;;;;;8.93;3.03;;;;;;;;;;20588720;28;20058;-64
2022/10/08 04:50:08;;;;;;;9.70;2.55;;;;;;;;;;20600888;28;20413;-64
2022/10/08 05:00:10;;;;;;;9.38;2.42;;;;;;;;;;20600665;28;20480;-60
2022/10/08 05:10:13;;;;;;;6.25;2.55;;;;;;;;;;20599694;28;20050;-65
2022/10/08 05:20:14;;;;;;;9.52;2.13;;;;;;;;;;20600225;28;20054;-61
2022/10/08 05:30:17;;;;;;;8.18;2.25;;;;;;;;;;20599794;28;20050;-62
2022/10/08 05:40:19;;;;;;;7.95;2.47;;;;;;;;;;20597131;28;20051;-62
2022/10/08 05:50:21;;;;;;;6.85;1.95;;;;;;;;;;20595653;28;20166;-61
2022/10/08 06:00:23;;;;;;;10.38;2.13;;;;;;;;;;20596655;28;20046;-62
2022/10/08 06:10:25;;;;;;;7.38;2.30;;;;;;;;;;20595966;28;20050;-61
2022/10/08 06:20:26;;;;;;;13.43;2.70;;;;;;;;;;20594520;28;20053;-63
2022/10/08 06:30:28;;;;;;;9.57;1.85;;;;;;;;;;20595359;28;20055;-63
2022/10/08 06:40:31;;;;;;;7.35;2.40;;;;;;;;;;20593979;28;20054;-65
2022/10/08 06:50:34;;;;;;;8.02;2.60;;;;;;;;;;20592803;28;20062;-64
2022/10/08 07:00:37;;;;;;;7.43;2.10;;;;;;;;;;20591479;28;20177;-63
2022/10/08 07:10:39;;;;;;;13.77;3.17;;;;;;;;;;20590769;28;20089;-60
2022/10/08 07:20:41;;;;;;;13.15;2.88;;;;;;;;;;20590364;28;20053;-61
2022/10/08 07:30:43;;;;;;;15.82;3.58;;;;;;;;;;20589767;28;20055;-61
2022/10/08 07:40:47;;;;;;;10.85;3.40;;;;;;;;;;20603759;28;20492;-63
2022/10/08 07:50:49;;;;;;;15.30;3.38;;;;;;;;;;20587664;28;20519;-61
2022/10/08 08:00:55;;;;;;;10.50;3.28;;;;;;;;;;20587109;28;20090;-60
2022/10/08 08:11:00;;;;;;;10.45;3.45;;;;;;;;;;20586870;28;20054;-63
2022/10/08 08:21:13;;;;;;;16.70;3.58;;;;;;;;;;20586169;28;20412;-62
2022/10/08 08:31:16;;;;;;;10.13;4.00;;;;;;;;;;20586211;28;20077;-61
2022/10/08 08:41:37;;;;;;;9.05;2.70;;;;;;;;;;20586335;28;20163;-61
2022/10/08 08:51:39;;;;;;;7.53;3.42;;;;;;;;;;20585509;28;20054;-61
2022/10/08 09:01:43;;;;;;;6.68;2.30;;;;;;;;;;20585344;28;20086;-62
2022/10/08 09:11:45;;;;;;;5.20;2.05;;;;;;;;;;20586303;28;20061;-63
2022/10/08 09:21:47;;;;;;;9.27;2.72;;;;;;;;;;20585090;28;20051;-61
2022/10/08 09:31:49;;;;;;;11.43;2.33;;;;;;;;;;20595107;28;20050;-63
2022/10/08 09:42:07;;;;;;;7.55;1.95;;;;;;;;;;20597679;28;20412;-60
2022/10/08 09:52:27;;;;;;;2.67;1.30;;;;;;;;;;20597284;28;20055;-61
2022/10/08 10:02:31;;;;;;;10.73;2.25;;;;;;;;;;20611218;28;20053;-61
2022/10/08 10:12:36;;;;;;;7.25;2.45;;;;;;;;;;20596361;28;20050;-64
2022/10/08 10:22:47;;;;;;;7.32;1.73;;;;;;;;;;20594523;28;20054;-62
2022/10/08 10:32:49;;;;;;;6.55;1.35;;;;;;;;;;20593053;28;20054;-71
2022/10/08 10:42:54;;;;;;;7.88;1.30;;;;;;;;;;20592487;28;20074;-65
2022/10/08 10:53:02;;;;;;;5.95;1.58;;;;;;;;;;20591851;28;20146;-61
2022/10/08 11:03:04;;;;;;;;;;;;;;;;;;20592199;28;20055;-62
2022/10/08 11:13:12;;;;;;;5.13;1.40;;;;;;;;;;20590981;28;19980;-65
2022/10/08 11:23:16;;;;;;;7.00;1.13;;;;;;;;;;20523736;28;20059;-69
2022/10/08 11:33:18;;;;;;;10.60;2.47;;;;;;;;;;20509081;28;20150;-69
2022/10/08 11:43:42;;;;;;;5.68;1.23;;;;;;;;;;20507603;28;20094;-63
2022/10/08 11:54:03;;;;;;;5.10;1.10;;;;;;;;;;20522499;28;20055;-62
2022/10/08 12:04:19;;;;;;;5.88;1.10;;;;;;;;;;20506697;28;20134;-62
2022/10/08 12:14:21;;;;;;;15.52;9.57;;;;;;;;;;20506911;28;20144;-62
2022/10/08 12:24:46;;;;;;;7.78;1.70;;;;;;;;;;20506514;28;20051;-63
2022/10/08 12:34:48;;;;;;;5.78;1.50;;;;;;;;;;20510755;28;20171;-62
2022/10/08 12:44:50;;;;;;;9.00;1.30;;;;;;;;;;20520000;28;20055;-62
2022/10/08 12:54:54;;;;;;;5.75;1.77;;;;;;;;;;20505337;28;20054;-64
2022/10/08 13:04:56;;;;;;;11.25;3.25;;;;;;;;;;20514768;28;20098;-64
2022/10/08 13:14:59;;;;;;;18.05;2.72;;;;;;;;;;20520419;28;20150;-65
2022/10/08 13:25:03;;;;;;;13.20;2.08;;;;;;;;;;20519667;28;20074;-63
2022/10/08 13:35:18;;;;;;;24.60;3.38;;;;;;;;;;20518969;28;20397;-63
2022/10/08 13:45:22;;;;;;;13.82;3.13;;;;;;;;;;20517817;28;20059;-62
2022/10/08 13:55:25;;;;;;;15.43;3.45;;;;;;;;;;20516930;28;20555;-62
2022/10/08 14:05:29;;;;;;;19.42;3.78;;;;;;;;;;20530863;28;20051;-64
2022/10/08 14:15:31;;;;;;;21.85;3.22;;;;;;;;;;20514744;28;20051;-63
2022/10/08 14:25:34;;;;;;;26.20;6.53;;;;;;;;;;20515468;28;20047;-61
2022/10/08 14:35:36;;;;;;;24.10;3.38;;;;;;;;;;20514959;28;20065;-62
2022/10/08 14:45:38;;;;;;;19.45;3.22;;;;;;;;;;20527876;28;20055;-61
2022/10/08 14:55:40;;;;;;;19.23;3.30;;;;;;;;;;20513740;28;20051;-61
2022/10/08 15:05:42;;;;;;;21.52;2.75;;;;;;;;;;20511986;28;20047;-64
2022/10/08 15:15:45;;;;;;;21.58;2.55;;;;;;;;;;20512375;28;20051;-63
2022/10/08 15:25:54;;;;;;;20.25;3.00;;;;;;;;;;20510229;28;20415;-62
2022/10/08 15:35:56;;;;;;;21.08;3.92;;;;;;;;;;20509479;28;20062;-63
2022/10/08 15:45:58;;;;;;;16.10;3.03;;;;;;;;;;20509769;28;20175;-62
2022/10/08 15:56:00;;;;;;;19.67;2.70;;;;;;;;;;20508527;28;20058;-64
2022/10/08 16:06:02;;;;;;;11.07;2.20;;;;;;;;;;20507257;28;20054;-63
2022/10/08 16:16:04;;;;;;;14.25;2.97;;;;;;;;;;20521456;28;20055;-62
2022/10/08 16:26:08;;;;;;;16.95;3.10;;;;;;;;;;20506847;28;20047;-63
2022/10/08 16:36:11;;;;;;;16.05;2.60;;;;;;;;;;20524534;28;20055;-62
2022/10/08 16:46:14;;;;;;;19.70;2.80;;;;;;;;;;20522166;28;20512;-61
2022/10/08 16:56:17;;;;;;;17.67;3.20;;;;;;;;;;20523068;28;20066;-63
2022/10/08 17:06:20;;;;;;;20.30;3.03;;;;;;;;;;20521015;28;20134;-62
2022/10/08 17:16:23;;;;;;;18.83;2.88;;;;;;;;;;20519576;28;20051;-67
2022/10/08 17:26:26;;;;;;;23.83;3.10;;;;;;;;;;20519559;28;20054;-66
2022/10/08 17:36:30;;;;;;;19.17;3.88;;;;;;;;;;20533518;28;20058;-65
2022/10/08 17:46:33;;;;;;;20.33;4.07;;;;;;;;;;20517479;28;20416;-61
2022/10/08 17:56:35;;;;;;;21.23;3.88;;;;;;;;;;20516831;28;20138;-61
2022/10/08 18:06:41;;;;;;;21.20;3.85;;;;;;;;;;20516998;28;20493;-61
2022/10/08 18:16:43;;;;;;;16.42;3.50;;;;;;;;;;20516337;29;20086;-61
2022/10/08 18:26:46;;;;;;;26.02;4.75;;;;;;;;;;20529313;28;20054;-60
2022/10/08 18:36:48;;;;;;;35.22;6.32;;;;;;;;;;20514554;28;20477;-60
2022/10/08 18:46:51;;;;;;;28.60;4.95;;;;;;;;;;20512939;28;20051;-62
2022/10/08 18:56:55;;;;;;;20.30;5.25;;;;;;;;;;20511344;28;20481;-68
2022/10/08 19:06:57;;;;;;;16.88;3.55;;;;;;;;;;20511517;28;20051;-63
2022/10/08 19:17:00;;;;;;;20.92;3.90;;;;;;;;;;20510787;28;20109;-61
2022/10/08 19:27:02;;;;;;;20.23;4.20;;;;;;;;;;20561650;28;20415;-62
2022/10/08 19:37:04;;;;;;;20.75;4.97;;;;;;;;;;20589954;28;20484;-61
2022/10/08 19:47:06;;;;;;;27.02;5.15;;;;;;;;;;20588271;28;20054;-62
2022/10/08 19:57:08;;;;;;;15.65;4.30;;;;;;;;;;20588580;28;20132;-63
2022/10/08 20:07:10;;;;;;;17.75;4.25;;;;;;;;;;20602535;28;20051;-61
2022/10/08 20:17:12;;;;;;;30.08;5.25;;;;;;;;;;20585882;28;20142;-66
2022/10/08 20:27:15;;;;;;;25.70;5.38;;;;;;;;;;20587627;28;20476;-66
2022/10/08 20:37:17;;;;;;;27.48;4.90;;;;;;;;;;20586239;28;20411;-65
2022/10/08 20:47:19;;;;;;;15.10;3.55;;;;;;;;;;20586746;28;20065;-66
2022/10/08 20:57:21;;;;;;;17.55;3.30;;;;;;;;;;20601153;28;20047;-65
2022/10/08 21:07:23;;;;;;;8.05;2.22;;;;;;;;;;20585698;28;20050;-63
2022/10/08 21:17:25;;;;;;;6.18;1.80;;;;;;;;;;20584605;28;20055;-66
2022/10/08 21:27:27;;;;;;;5.70;1.48;;;;;;;;;;20596435;28;20518;-67
2022/10/08 21:37:29;;;;;;;6.45;2.35;;;;;;;;;;20597830;28;20051;-62
2022/10/08 21:47:32;;;;;;;7.97;1.58;;;;;;;;;;20597590;28;20051;-62
2022/10/08 21:57:33;;;;;;;9.02;1.98;;;;;;;;;;20596627;28;20459;-62
2022/10/08 22:07:35;;;;;;;3.97;1.15;;;;;;;;;;20595935;28;20047;-64
2022/10/08 22:17:37;;;;;;;5.70;1.45;;;;;;;;;;20596149;28;20062;-62
2022/10/08 22:27:39;;;;;;;4.32;1.20;;;;;;;;;;20594845;28;20078;-62
2022/10/08 22:37:41;;;;;;;5.00;1.35;;;;;;;;;;20593341;28;20054;-65
2022/10/08 22:47:46;;;;;;;5.05;1.00;;;;;;;;;;20593789;28;20062;-62
2022/10/08 22:57:48;;;;;;;6.07;1.23;;;;;;;;;;20592510;28;20202;-66
2022/10/08 23:07:54;;;;;;;4.38;1.70;;;;;;;;;;20591734;28;20133;-65
2022/10/08 23:17:55;;;;;;;5.60;1.17;;;;;;;;;;20590458;28;20050;-62
2022/10/08 23:27:58;;;;;;;6.45;2.08;;;;;;;;;;20591022;28;20447;-61
2022/10/08 23:37:59;;;;;;;8.43;1.40;;;;;;;;;;20589041;28;20061;-65
2022/10/08 23:48:02;;;;;;;9.63;1.48;;;;;;;;;;20588714;28;20413;-66
2022/10/08 23:58:04;;;;;;;9.20;1.35;;;;;;;;;;20588064;28;20113;-67
